createdAt,value
2023-03-29T00:00:08.397Z,3.90
2023-03-29T00:05:08.455Z,3.90
2023-03-29T00:10:09.268Z,3.58
2023-03-29T00:15:08.333Z,3.78
2023-03-29T00:20:08.398Z,3.65
2023-03-29T00:25:08.436Z,4.05
2023-03-29T00:30:08.515Z,3.50
2023-03-29T00:35:08.570Z,4.55
2023-03-29T00:40:08.654Z,3.65
2023-03-29T00:45:08.727Z,3.60
2023-03-29T00:50:18.784Z,0
2023-03-29T00:55:08.787Z,4.00
2023-03-29T01:00:08.933Z,3.90
2023-03-29T01:05:07.929Z,3.63
2023-03-29T01:10:08.006Z,3.15
2023-03-29T01:15:08.277Z,3.80
2023-03-29T01:20:08.324Z,3.78
2023-03-29T01:25:08.380Z,4.15
2023-03-29T01:30:08.429Z,3.92
2023-03-29T01:35:09.796Z,3.75
2023-03-29T01:40:08.853Z,3.80
2023-03-29T01:45:10.915Z,4.20
2023-03-29T01:50:09.009Z,3.65
2023-03-29T01:55:08.095Z,3.78
2023-03-29T02:05:08.178Z,3.97
2023-03-29T02:10:08.264Z,3.45
2023-03-29T02:15:08.320Z,3.75
2023-03-29T02:20:08.434Z,4.00
2023-03-29T02:25:08.479Z,4.32
2023-03-29T02:30:08.619Z,3.53
2023-03-29T02:35:08.652Z,3.80
2023-03-29T02:40:08.718Z,4.03
2023-03-29T02:45:08.767Z,4.38
2023-03-29T02:50:08.830Z,3.85
2023-03-29T02:55:08.896Z,4.00
2023-03-29T03:00:10.594Z,3.72
2023-03-29T03:05:08.760Z,3.67
2023-03-29T03:10:08.773Z,3.55
2023-03-29T03:15:08.838Z,4.05
2023-03-29T03:20:08.868Z,3.90
2023-03-29T03:25:08.912Z,3.30
2023-03-29T03:30:08.931Z,4.15
2023-03-29T03:35:07.960Z,3.70
2023-03-29T03:40:08.007Z,3.35
2023-03-29T03:45:08.048Z,3.28
2023-03-29T03:50:08.120Z,3.33
2023-03-29T03:55:08.192Z,3.20
2023-03-29T04:00:08.202Z,3.30
2023-03-29T04:05:02.360Z,4.28
2023-03-29T04:10:02.529Z,3.15
2023-03-29T04:15:02.880Z,3.58
2023-03-29T04:20:03.148Z,3.25
2023-03-29T04:25:02.276Z,3.40
2023-03-29T04:30:02.663Z,3.25
2023-03-29T04:35:02.881Z,3.78
2023-03-29T04:40:03.151Z,4.05
2023-03-29T04:45:02.474Z,4.30
2023-03-29T04:50:02.714Z,3.38
2023-03-29T04:55:02.909Z,3.97
2023-03-29T05:00:03.216Z,3.65
2023-03-29T05:05:02.407Z,4.00
2023-03-29T05:10:02.620Z,3.45
2023-03-29T05:15:02.764Z,3.40
2023-03-29T05:20:02.932Z,3.38
2023-03-29T05:25:03.110Z,3.50
2023-03-29T05:30:02.279Z,4.20
2023-03-29T05:35:02.500Z,3.90
2023-03-29T05:40:05.555Z,3.35
2023-03-29T05:45:02.500Z,3.95
2023-03-29T05:50:02.853Z,4.53
2023-03-29T05:55:02.938Z,3.75
2023-03-29T06:00:02.227Z,3.15
2023-03-29T06:05:02.601Z,3.67
2023-03-29T06:10:02.809Z,3.67
2023-03-29T06:15:03.002Z,4.03
2023-03-29T06:20:02.278Z,4.03
2023-03-29T06:25:02.492Z,3.90
2023-03-29T06:30:02.703Z,3.65
2023-03-29T06:35:02.953Z,3.78
2023-03-29T06:40:02.252Z,4.22
2023-03-29T06:45:02.509Z,3.97
2023-03-29T06:50:02.834Z,4.53
2023-03-29T06:55:02.988Z,3.80
2023-03-29T07:00:02.166Z,3.63
2023-03-29T07:05:02.450Z,3.85
2023-03-29T07:10:02.741Z,3.83
2023-03-29T07:15:02.920Z,3.78
2023-03-29T07:20:03.090Z,3.35
2023-03-29T07:25:02.232Z,4.05
2023-03-29T07:30:03.140Z,3.60
2023-03-29T07:35:02.311Z,3.47
2023-03-29T07:40:02.514Z,4.10
2023-03-29T07:45:02.644Z,3.67
2023-03-29T07:50:02.803Z,3.63
2023-03-29T07:55:03.072Z,3.28
2023-03-29T08:00:02.278Z,3.67
2023-03-29T08:05:02.736Z,3.83
2023-03-29T08:10:02.997Z,4.50
2023-03-29T08:15:02.279Z,3.75
2023-03-29T08:20:02.560Z,3.70
2023-03-29T08:25:02.785Z,3.92
2023-03-29T08:30:03.260Z,4.25
2023-03-29T08:35:02.479Z,4.00
2023-03-29T08:40:02.737Z,4.18
2023-03-29T08:45:12.901Z,0
2023-03-29T08:50:03.154Z,3.67
2023-03-29T08:55:02.451Z,3.67
2023-03-29T09:00:02.664Z,3.90
2023-03-29T09:05:02.885Z,3.72
2023-03-29T09:10:04.775Z,3.75
2023-03-29T09:15:03.037Z,3.97
2023-03-29T09:20:02.123Z,3.80
2023-03-29T09:25:13.266Z,0
2023-03-29T09:30:02.782Z,3.72
2023-03-29T09:35:02.926Z,4.15
2023-03-29T09:40:04.974Z,4.35
2023-03-29T09:45:02.419Z,4.30
2023-03-29T09:50:02.587Z,4.28
2023-03-29T09:55:02.829Z,4.82
2023-03-29T10:00:02.167Z,4.60
2023-03-29T10:05:02.411Z,4.55
2023-03-29T10:10:02.608Z,4.80
2023-03-29T10:15:02.884Z,4.65
2023-03-29T10:20:04.363Z,4.50
2023-03-29T10:25:02.810Z,4.57
2023-03-29T10:30:03.102Z,4.90
2023-03-29T10:35:02.388Z,4.50
2023-03-29T10:40:02.672Z,4.55
2023-03-29T10:45:02.853Z,4.75
2023-03-29T10:50:03.153Z,4.53
2023-03-29T10:55:02.311Z,4.63
2023-03-29T11:00:02.497Z,4.90
2023-03-29T11:05:08.583Z,5.28
2023-03-29T11:10:02.815Z,4.22
2023-03-29T11:15:03.179Z,5.18
2023-03-29T11:20:04.510Z,5.13
2023-03-29T11:25:02.450Z,4.57
2023-03-29T11:30:02.651Z,5.40
2023-03-29T11:35:13.087Z,0
2023-03-29T11:40:02.341Z,5.18
2023-03-29T11:45:02.560Z,5.78
2023-03-29T11:50:02.694Z,5.35
2023-03-29T11:55:02.795Z,5.72
2023-03-29T12:00:03.038Z,5.28
2023-03-29T12:05:02.285Z,6.25
2023-03-29T12:10:04.450Z,5.47
2023-03-29T12:15:02.705Z,4.75
2023-03-29T12:20:02.833Z,5.18
2023-03-29T12:25:03.034Z,5.20
2023-03-29T12:30:02.272Z,4.93
2023-03-29T12:35:02.499Z,4.65
2023-03-29T12:40:02.675Z,5.97
2023-03-29T12:45:03.017Z,5.60
2023-03-29T12:50:02.231Z,5.55
2023-03-29T12:55:02.383Z,5.20
2023-03-29T13:00:02.519Z,5.10
2023-03-29T13:05:02.764Z,5.30
2023-03-29T13:10:02.970Z,5.50
2023-03-29T13:15:02.213Z,5.28
2023-03-29T13:20:02.378Z,4.38
2023-03-29T13:25:02.596Z,5.03
2023-03-29T13:30:02.794Z,5.05
2023-03-29T13:35:12.979Z,0
2023-03-29T13:40:02.358Z,4.30
2023-03-29T13:45:02.489Z,4.50
2023-03-29T13:50:02.793Z,5.05
2023-03-29T13:55:03.089Z,4.15
2023-03-29T14:00:02.281Z,3.63
2023-03-29T14:05:02.466Z,3.95
2023-03-29T14:10:02.568Z,3.88
2023-03-29T14:15:02.653Z,4.38
2023-03-29T14:20:03.055Z,3.95
2023-03-29T14:25:02.284Z,3.70
2023-03-29T14:30:02.397Z,4.20
2023-03-29T14:35:02.565Z,4.03
2023-03-29T14:40:02.789Z,4.28
2023-03-29T14:45:03.056Z,4.75
2023-03-29T14:50:02.180Z,3.72
2023-03-29T14:55:02.378Z,3.50
2023-03-29T15:00:02.568Z,2.63
2023-03-29T15:05:02.950Z,3.13
2023-03-29T15:10:02.242Z,4.20
2023-03-29T15:15:02.534Z,3.75
2023-03-29T15:20:02.910Z,3.50
2023-03-29T15:25:03.144Z,3.50
2023-03-29T15:30:02.451Z,3.25
2023-03-29T15:35:02.647Z,3.20
2023-03-29T15:40:02.903Z,3.10
2023-03-29T15:45:03.164Z,3.30
2023-03-29T15:50:02.443Z,3.05
2023-03-29T15:55:02.676Z,3.00
2023-03-29T16:00:02.885Z,2.95
2023-03-29T16:05:03.104Z,2.95
2023-03-29T16:10:02.182Z,2.53
2023-03-29T16:15:02.424Z,2.60
2023-03-29T16:20:02.690Z,2.50
2023-03-29T16:25:02.849Z,2.28
2023-03-29T16:30:03.024Z,2.67
2023-03-29T16:35:02.294Z,2.53
2023-03-29T16:40:02.467Z,2.53
2023-03-29T16:45:02.687Z,2.30
2023-03-29T16:50:02.935Z,2.15
2023-03-29T16:55:02.235Z,2.35
2023-03-29T17:00:02.967Z,2.13
2023-03-29T17:05:02.154Z,1.80
2023-03-29T17:10:02.306Z,2.22
2023-03-29T17:15:02.791Z,2.22
2023-03-29T17:20:03.014Z,2.10
2023-03-29T17:25:02.257Z,2.30
2023-03-29T17:30:02.325Z,2.03
2023-03-29T17:35:02.495Z,2.35
2023-03-29T17:40:02.756Z,1.77
2023-03-29T17:45:02.861Z,1.80
2023-03-29T17:50:03.028Z,2.30
2023-03-29T17:55:02.312Z,2.28
2023-03-29T18:00:02.609Z,2.10
2023-03-29T18:05:02.820Z,2.20
2023-03-29T18:10:02.956Z,1.77
2023-03-29T18:15:02.293Z,2.15
2023-03-29T18:20:02.558Z,2.53
2023-03-29T18:25:02.832Z,2.28
2023-03-29T18:30:03.047Z,2.28
2023-03-29T18:35:02.339Z,2.47
2023-03-29T18:40:02.527Z,2.42
2023-03-29T18:45:02.829Z,2.10
2023-03-29T18:50:03.163Z,2.13
2023-03-29T18:55:02.281Z,2.10
2023-03-29T19:00:02.459Z,2.80
2023-03-29T19:05:02.573Z,2.83
2023-03-29T19:10:04.212Z,2.67
2023-03-29T19:15:02.470Z,2.80
2023-03-29T19:20:02.757Z,2.20
2023-03-29T19:25:02.956Z,2.80
2023-03-29T19:30:02.115Z,2.45
2023-03-29T19:35:02.290Z,2.40
2023-03-29T19:40:02.444Z,2.78
2023-03-29T19:45:02.673Z,3.83
2023-03-29T19:50:02.940Z,3.33
2023-03-29T19:55:02.099Z,2.65
2023-03-29T20:00:02.210Z,2.35
2023-03-29T20:05:02.394Z,2.65
2023-03-29T20:10:02.608Z,2.55
2023-03-29T20:15:02.842Z,2.20
2023-03-29T20:20:04.825Z,2.20
2023-03-29T20:25:03.019Z,2.90
2023-03-29T20:30:02.253Z,2.45
2023-03-29T20:35:02.368Z,2.42
2023-03-29T20:40:02.601Z,2.50
2023-03-29T20:45:02.772Z,2.78
2023-03-29T20:50:02.960Z,2.60
2023-03-29T20:55:02.116Z,2.55
2023-03-29T21:00:02.237Z,2.85
2023-03-29T21:05:15.262Z,2.90
2023-03-29T21:10:08.376Z,2.78
2023-03-29T21:15:08.432Z,2.63
2023-03-29T21:20:08.486Z,3.40
2023-03-29T21:25:08.563Z,3.00
2023-03-29T21:30:08.599Z,2.40
2023-03-29T21:35:08.637Z,2.88
2023-03-29T21:40:08.680Z,2.95
2023-03-29T21:45:08.756Z,2.30
2023-03-29T21:50:08.832Z,2.25
2023-03-29T21:55:08.840Z,2.60
2023-03-29T22:00:08.882Z,2.70
2023-03-29T22:05:08.907Z,2.10
2023-03-29T22:10:08.964Z,2.40
2023-03-29T22:15:07.971Z,2.30
2023-03-29T22:20:08.064Z,2.53
2023-03-29T22:25:08.098Z,2.38
2023-03-29T22:30:08.108Z,2.50
2023-03-29T22:35:08.183Z,2.60
2023-03-29T22:40:08.231Z,2.40
2023-03-29T22:45:08.248Z,2.42
2023-03-29T22:50:08.343Z,2.17
2023-03-29T22:55:08.423Z,2.72
2023-03-29T23:01:12.238Z,2.80
2023-03-29T23:05:08.562Z,2.70
2023-03-29T23:10:08.599Z,3.03
2023-03-29T23:15:08.646Z,2.22
2023-03-29T23:20:08.683Z,2.70
2023-03-29T23:25:08.737Z,2.40
2023-03-29T23:30:08.801Z,2.70
2023-03-29T23:35:08.871Z,2.72
2023-03-29T23:40:08.922Z,2.88
2023-03-29T23:45:08.993Z,2.92
2023-03-29T23:50:08.051Z,2.50
2023-03-29T23:55:08.062Z,2.90
